Date,TemperatureHighF,TemperatureAvgF,TemperatureLowF,DewpointHighF,DewpointAvgF,DewpointLowF,HumidityHigh,HumidityAvg,HumidityLow,PressureMaxIn,PressureMinIn,WindSpeedMaxMPH,WindSpeedAvgMPH,GustSpeedMaxMPH,PrecipitationSumIn
2013-1-1,42.4,39.4,35.6,31.2,29.9,26.9,77,69,63,30.04,29.93,15,3,15,0.00
2013-1-2,35.4,31.5,22.8,27.3,21.7,13.0,80,67,44,30.25,30.02,11,1,11,0.00
2013-1-3,39.6,30.7,14.7,23.6,19.2,11.8,88,64,45,30.27,30.15,28,3,28,0.00
2013-1-4,39.0,35.1,32.7,24.1,22.5,21.1,66,60,52,30.23,30.13,21,6,28,0.00
2013-1-5,43.9,35.8,30.7,27.9,23.6,21.1,84,62,43,30.40,30.17,18,2,18,0.00
2013-1-6,45.9,38.2,27.7,32.5,28.7,24.0,87,70,52,30.20,30.04,10,1,11,0.00
2013-1-7,41.4,35.9,23.2,32.5,26.3,19.9,88,69,55,30.46,30.18,15,2,15,0.00
2013-1-8,50.4,30.4,18.0,34.1,24.2,15.0,88,79,50,30.44,30.36,5,0,5,0.00
2013-1-9,52.3,37.7,23.5,44.3,31.2,20.2,88,78,56,30.43,30.25,14,2,16,0.00
2013-1-10,52.9,44.4,34.2,33.2,30.4,26.8,78,59,38,30.62,30.43,21,2,21,0.00
2013-1-11,47.1,41.6,38.7,40.8,34.5,29.7,87,76,58,30.48,30.11,7,1,7,0.12
2013-1-12,57.6,45.6,39.9,50.8,41.6,36.4,88,86,77,30.18,30.09,6,0,6,0.01
2013-1-13,57.4,49.1,42.4,52.3,45.2,38.8,88,86,83,30.10,29.94,6,1,6,0.00
2013-1-14,55.6,48.4,38.5,51.7,41.2,33.0,88,77,62,30.33,29.94,14,2,14,0.22
2013-1-15,40.1,37.6,33.8,35.2,33.5,30.3,88,85,77,30.37,30.18,7,1,7,0.46
2013-1-16,39.9,36.2,33.3,36.7,32.7,29.8,88,87,87,30.18,29.86,6,0,6,0.39
2013-1-17,41.5,38.5,33.3,36.5,31.4,26.5,88,76,56,30.16,30.01,14,2,14,0.01
2013-1-18,36.9,31.8,23.4,28.5,18.2,10.4,81,58,36,30.51,30.09,24,3,24,0.00
2013-1-19,58.1,41.3,23.2,29.8,25.1,18.5,87,56,29,30.37,29.91,11,2,11,0.00
2013-1-20,53.2,41.6,27.9,32.9,20.5,6.9,83,46,19,30.11,29.82,24,4,26,0.00
2013-1-21,42.6,31.4,24.5,20.7,16.8,8.9,74,55,32,30.11,29.83,23,3,23,0.00
2013-1-22,24.4,17.1,13.1,9.8,-0.4,-3.7,63,46,37,30.32,29.99,24,6,26,0.00
2013-1-23,24.3,18.2,11.5,14.3,2.7,-0.9,80,51,36,30.37,30.15,17,3,17,0.00
2013-1-24,25.7,19.4,10.8,15.0,8.1,-2.5,87,64,40,30.56,30.12,15,2,18,0.00
2013-1-25,21.6,16.4,8.5,17.0,10.3,0.4,87,77,58,30.55,30.08,6,1,7,0.00
2013-1-26,33.0,24.7,15.3,26.2,19.9,12.3,88,82,64,30.47,30.10,11,1,11,0.01
2013-1-27,35.6,26.7,14.9,22.7,18.2,11.3,86,71,53,30.61,30.47,6,1,9,0.01
2013-1-28,43.8,35.8,28.8,40.1,31.7,21.7,87,85,74,30.47,30.06,5,0,5,0.13
2013-1-29,69.9,54.4,41.3,57.6,48.2,37.7,88,80,62,30.12,29.92,7,1,7,0.00
2013-1-30,70.8,56.1,45.9,61.3,51.6,42.0,87,85,69,29.92,29.23,10,1,19,1.26
2013-1-31,55.4,37.3,28.7,51.6,25.9,12.8,87,64,48,29.89,29.16,38,8,38,0.15